sensor_id;sensor_type;location;lat;lon;timestamp;pressure;altitude;pressure_sealevel;temperature;humidity
55610;BME280;41486;52.502;13.486;2023-10-08T00:01:10;101272.97;;;11.36;100.00
55610;BME280;41486;52.502;13.486;2023-10-08T00:03:41;101278.88;;;11.40;100.00
55610;BME280;41486;52.502;13.486;2023-10-08T00:06:16;101292.47;;;11.33;100.00
55610;BME280;41486;52.502;13.486;2023-10-08T00:08:46;101295.50;;;11.27;100.00
55610;BME280;41486;52.502;13.486;2023-10-08T00:11:14;101317.34;;;11.29;100.00
55610;BME280;41486;52.502;13.486;2023-10-08T00:13:45;101294.69;;;11.27;100.00
55610;BME280;41486;52.502;13.486;2023-10-08T00:16:15;101283.63;;;11.22;100.00
55610;BME280;41486;52.502;13.486;2023-10-08T00:18:46;101302.78;;;11.24;100.00
55610;BME280;41486;52.502;13.486;2023-10-08T00:21:21;101293.81;;;11.26;100.00
55610;BME280;41486;52.502;13.486;2023-10-08T00:23:55;101299.84;;;11.28;100.00
55610;BME280;41486;52.502;13.486;2023-10-08T00:26:27;101307.84;;;11.27;100.00
55610;BME280;41486;52.502;13.486;2023-10-08T00:29:00;101311.31;;;11.27;100.00
55610;BME280;41486;52.502;13.486;2023-10-08T00:31:33;101313.56;;;11.33;100.00
55610;BME280;41486;52.502;13.486;2023-10-08T00:34:07;101309.44;;;11.29;100.00
55610;BME280;41486;52.502;13.486;2023-10-08T00:36:38;101311.75;;;11.34;100.00
55610;BME280;41486;52.502;13.486;2023-10-08T00:39:08;101315.22;;;11.34;100.00
55610;BME280;41486;52.502;13.486;2023-10-08T00:41:41;101315.97;;;11.36;100.00
55610;BME280;41486;52.502;13.486;2023-10-08T00:44:12;101325.97;;;11.31;100.00
55610;BME280;41486;52.502;13.486;2023-10-08T00:46:44;101324.91;;;11.34;100.00
55610;BME280;41486;52.502;13.486;2023-10-08T00:49:19;101325.13;;;11.31;100.00
55610;BME280;41486;52.502;13.486;2023-10-08T00:52:09;101337.03;;;11.36;100.00
55610;BME280;41486;52.502;13.486;2023-10-08T00:54:52;101334.41;;;11.36;100.00
55610;BME280;41486;52.502;13.486;2023-10-08T00:57:33;101329.88;;;11.39;100.00
55610;BME280;41486;52.502;13.486;2023-10-08T01:00:07;101336.28;;;11.34;100.00
55610;BME280;41486;52.502;13.486;2023-10-08T01:02:43;101336.28;;;11.34;100.00
55610;BME280;41486;52.502;13.486;2023-10-08T01:05:16;101336.72;;;11.28;100.00
55610;BME280;41486;52.502;13.486;2023-10-08T01:07:47;101346.19;;;11.31;100.00
55610;BME280;41486;52.502;13.486;2023-10-08T01:10:18;101343.69;;;11.29;100.00
55610;BME280;41486;52.502;13.486;2023-10-08T01:12:48;101329.13;;;11.24;100.00
55610;BME280;41486;52.502;13.486;2023-10-08T01:15:32;101335.34;;;11.23;100.00
55610;BME280;41486;52.502;13.486;2023-10-08T01:18:03;101338.28;;;11.18;100.00
55610;BME280;41486;52.502;13.486;2023-10-08T01:20:37;101342.41;;;11.22;100.00
55610;BME280;41486;52.502;13.486;2023-10-08T01:23:12;101346.00;;;11.34;100.00
55610;BME280;41486;52.502;13.486;2023-10-08T01:25:41;101354.41;;;11.26;100.00
55610;BME280;41486;52.502;13.486;2023-10-08T01:28:10;101351.78;;;11.26;100.00
55610;BME280;41486;52.502;13.486;2023-10-08T01:30:42;101344.84;;;11.25;100.00
55610;BME280;41486;52.502;13.486;2023-10-08T01:33:14;101346.63;;;11.25;100.00
55610;BME280;41486;52.502;13.486;2023-10-08T01:35:44;101352.09;;;11.34;100.00
55610;BME280;41486;52.502;13.486;2023-10-08T01:38:14;101357.16;;;11.25;100.00
55610;BME280;41486;52.502;13.486;2023-10-08T01:40:50;101359.34;;;11.18;100.00
55610;BME280;41486;52.502;13.486;2023-10-08T01:43:19;101360.53;;;11.27;100.00
55610;BME280;41486;52.502;13.486;2023-10-08T01:45:48;101361.06;;;11.19;100.00
55610;BME280;41486;52.502;13.486;2023-10-08T01:48:19;101361.16;;;11.17;100.00
55610;BME280;41486;52.502;13.486;2023-10-08T01:50:54;101363.50;;;11.22;100.00
55610;BME280;41486;52.502;13.486;2023-10-08T01:53:29;101371.72;;;11.30;100.00
55610;BME280;41486;52.502;13.486;2023-10-08T01:55:58;101374.56;;;11.27;100.00
55610;BME280;41486;52.502;13.486;2023-10-08T01:58:28;101388.28;;;11.32;100.00
55610;BME280;41486;52.502;13.486;2023-10-08T02:00:56;101385.00;;;11.29;100.00
55610;BME280;41486;52.502;13.486;2023-10-08T02:03:27;101389.97;;;11.33;100.00
55610;BME280;41486;52.502;13.486;2023-10-08T02:05:55;101391.44;;;11.38;100.00
55610;BME280;41486;52.502;13.486;2023-10-08T02:08:26;101385.63;;;11.32;100.00
55610;BME280;41486;52.502;13.486;2023-10-08T02:11:02;101386.69;;;11.43;100.00
55610;BME280;41486;52.502;13.486;2023-10-08T02:13:32;101378.59;;;11.59;100.00
55610;BME280;41486;52.502;13.486;2023-10-08T02:16:01;101388.81;;;11.50;100.00
55610;BME280;41486;52.502;13.486;2023-10-08T02:18:29;101395.88;;;11.37;100.00
55610;BME280;41486;52.502;13.486;2023-10-08T02:20:58;101389.22;;;11.44;100.00
55610;BME280;41486;52.502;13.486;2023-10-08T02:23:27;101413.03;;;11.56;100.00
55610;BME280;41486;52.502;13.486;2023-10-08T02:26:09;101410.41;;;11.43;100.00
55610;BME280;41486;52.502;13.486;2023-10-08T02:28:37;101422.00;;;11.40;100.00
55610;BME280;41486;52.502;13.486;2023-10-08T02:31:05;101429.16;;;11.38;100.00
55610;BME280;41486;52.502;13.486;2023-10-08T02:33:35;101446.97;;;11.34;100.00
55610;BME280;41486;52.502;13.486;2023-10-08T02:36:04;101467.41;;;11.31;100.00
55610;BME280;41486;52.502;13.486;2023-10-08T02:38:33;101470.75;;;11.20;100.00
55610;BME280;41486;52.502;13.486;2023-10-08T02:41:07;101458.16;;;11.25;100.00
55610;BME280;41486;52.502;13.486;2023-10-08T02:43:36;101457.09;;;11.28;100.00
55610;BME280;41486;52.502;13.486;2023-10-08T02:46:05;101449.81;;;11.31;100.00
55610;BME280;41486;52.502;13.486;2023-10-08T02:48:34;101456.38;;;11.39;100.00
55610;BME280;41486;52.502;13.486;2023-10-08T02:51:03;101455.09;;;11.31;100.00
55610;BME280;41486;52.502;13.486;2023-10-08T02:53:41;101447.59;;;11.25;100.00
55610;BME280;41486;52.502;13.486;2023-10-08T02:56:12;101452.47;;;11.31;100.00
55610;BME280;41486;52.502;13.486;2023-10-08T02:58:41;101458.97;;;11.26;100.00
55610;BME280;41486;52.502;13.486;2023-10-08T03:01:10;101453.72;;;11.39;100.00
55610;BME280;41486;52.502;13.486;2023-10-08T03:03:40;101452.66;;;11.28;100.00
55610;BME280;41486;52.502;13.486;2023-10-08T03:06:09;101456.78;;;11.32;100.00
55610;BME280;41486;52.502;13.486;2023-10-08T03:08:41;101446.97;;;11.34;100.00
55610;BME280;41486;52.502;13.486;2023-10-08T03:11:10;101451.84;;;11.41;100.00
55610;BME280;41486;52.502;13.486;2023-10-08T03:13:45;101457.84;;;11.43;100.00
55610;BME280;41486;52.502;13.486;2023-10-08T03:16:19;101449.28;;;11.39;100.00
55610;BME280;41486;52.502;13.486;2023-10-08T03:19:01;101447.53;;;11.40;100.00
55610;BME280;41486;52.502;13.486;2023-10-08T03:21:32;101470.16;;;11.29;100.00
55610;BME280;41486;52.502;13.486;2023-10-08T03:24:15;101471.31;;;11.38;100.00
55610;BME280;41486;52.502;13.486;2023-10-08T03:26:57;101460.06;;;11.36;100.00
55610;BME280;41486;52.502;13.486;2023-10-08T03:29:35;101459.19;;;11.35;100.00
55610;BME280;41486;52.502;13.486;2023-10-08T03:32:12;101470.78;;;11.33;100.00
55610;BME280;41486;52.502;13.486;2023-10-08T03:34:47;101466.44;;;11.19;100.00
55610;BME280;41486;52.502;13.486;2023-10-08T03:37:17;101490.53;;;11.53;100.00
55610;BME280;41486;52.502;13.486;2023-10-08T03:39:56;101505.50;;;11.40;100.00
55610;BME280;41486;52.502;13.486;2023-10-08T03:42:48;101490.94;;;11.34;100.00
55610;BME280;41486;52.502;13.486;2023-10-08T03:45:18;101491.63;;;11.23;100.00
55610;BME280;41486;52.502;13.486;2023-10-08T03:48:00;101510.22;;;11.34;100.00
55610;BME280;41486;52.502;13.486;2023-10-08T03:50:33;101513.78;;;11.20;100.00
55610;BME280;41486;52.502;13.486;2023-10-08T03:53:08;101525.00;;;11.37;100.00
55610;BME280;41486;52.502;13.486;2023-10-08T03:55:39;101522.44;;;11.35;100.00
55610;BME280;41486;52.502;13.486;2023-10-08T03:58:08;101528.41;;;11.25;100.00
55610;BME280;41486;52.502;13.486;2023-10-08T04:00:46;101545.16;;;11.24;100.00
55610;BME280;41486;52.502;13.486;2023-10-08T04:03:14;101542.75;;;11.48;100.00
55610;BME280;41486;52.502;13.486;2023-10-08T04:05:54;101552.53;;;11.18;100.00
55610;BME280;41486;52.502;13.486;2023-10-08T04:08:41;101554.72;;;11.12;100.00
55610;BME280;41486;52.502;13.486;2023-10-08T04:11:10;101548.56;;;11.26;100.00
55610;BME280;41486;52.502;13.486;2023-10-08T04:13:55;101551.66;;;11.32;100.00
55610;BME280;41486;52.502;13.486;2023-10-08T04:16:28;101536.78;;;11.31;100.00
55610;BME280;41486;52.502;13.486;2023-10-08T04:18:56;101534.22;;;11.30;100.00
55610;BME280;41486;52.502;13.486;2023-10-08T04:21:30;101561.59;;;11.00;100.00
55610;BME280;41486;52.502;13.486;2023-10-08T04:24:01;101576.88;;;11.22;100.00
55610;BME280;41486;52.502;13.486;2023-10-08T04:26:35;101589.88;;;11.25;100.00
55610;BME280;41486;52.502;13.486;2023-10-08T04:29:07;101584.56;;;10.98;100.00
55610;BME280;41486;52.502;13.486;2023-10-08T04:31:36;101590.56;;;11.00;100.00
55610;BME280;41486;52.502;13.486;2023-10-08T04:34:10;101601.25;;;11.26;100.00
55610;BME280;41486;52.502;13.486;2023-10-08T04:36:42;101604.72;;;11.26;100.00
55610;BME280;41486;52.502;13.486;2023-10-08T04:39:14;101613.22;;;11.17;100.00
55610;BME280;41486;52.502;13.486;2023-10-08T04:41:48;101618.03;;;11.10;100.00
55610;BME280;41486;52.502;13.486;2023-10-08T04:44:20;101620.66;;;11.10;100.00
55610;BME280;41486;52.502;13.486;2023-10-08T04:46:51;101606.28;;;11.16;100.00
55610;BME280;41486;52.502;13.486;2023-10-08T04:49:19;101612.50;;;11.00;100.00
55610;BME280;41486;52.502;13.486;2023-10-08T04:51:56;101604.06;;;11.23;100.00
55610;BME280;41486;52.502;13.486;2023-10-08T04:54:27;101608.50;;;11.22;100.00
55610;BME280;41486;52.502;13.486;2023-10-08T04:57:01;101606.63;;;11.10;100.00
55610;BME280;41486;52.502;13.486;2023-10-08T04:59:33;101613.81;;;11.08;100.00
55610;BME280;41486;52.502;13.486;2023-10-08T05:02:04;101611.72;;;11.13;100.00
55610;BME280;41486;52.502;13.486;2023-10-08T05:04:49;101618.41;;;11.18;100.00
55610;BME280;41486;52.502;13.486;2023-10-08T05:07:49;101625.84;;;10.97;100.00
55610;BME280;41486;52.502;13.486;2023-10-08T05:10:44;101644.47;;;11.09;100.00
55610;BME280;41486;52.502;13.486;2023-10-08T05:13:27;101656.69;;;10.95;100.00
55610;BME280;41486;52.502;13.486;2023-10-08T05:16:12;101655.59;;;10.85;100.00
55610;BME280;41486;52.502;13.486;2023-10-08T05:19:04;101647.13;;;10.80;100.00
55610;BME280;41486;52.502;13.486;2023-10-08T05:21:52;101653.13;;;10.96;100.00
55610;BME280;41486;52.502;13.486;2023-10-08T05:24:32;101652.31;;;10.96;100.00
55610;BME280;41486;52.502;13.486;2023-10-08T05:27:06;101682.47;;;10.90;100.00
55610;BME280;41486;52.502;13.486;2023-10-08T05:29:51;101685.19;;;11.17;100.00
55610;BME280;41486;52.502;13.486;2023-10-08T05:32:35;101699.88;;;10.93;100.00
55610;BME280;41486;52.502;13.486;2023-10-08T05:35:35;101689.06;;;10.68;100.00
55610;BME280;41486;52.502;13.486;2023-10-08T05:38:21;101694.50;;;10.65;100.00
55610;BME280;41486;52.502;13.486;2023-10-08T05:41:01;101705.41;;;10.59;100.00
55610;BME280;41486;52.502;13.486;2023-10-08T05:43:34;101706.03;;;10.48;100.00
55610;BME280;41486;52.502;13.486;2023-10-08T05:46:22;101721.34;;;10.41;100.00
55610;BME280;41486;52.502;13.486;2023-10-08T05:49:08;101716.06;;;10.41;100.00
55610;BME280;41486;52.502;13.486;2023-10-08T05:52:07;101728.97;;;10.30;100.00
55610;BME280;41486;52.502;13.486;2023-10-08T05:54:58;101726.25;;;10.32;100.00
55610;BME280;41486;52.502;13.486;2023-10-08T05:57:53;101723.53;;;10.33;100.00
55610;BME280;41486;52.502;13.486;2023-10-08T06:00:29;101732.06;;;10.22;100.00
55610;BME280;41486;52.502;13.486;2023-10-08T06:03:13;101758.97;;;10.12;100.00
55610;BME280;41486;52.502;13.486;2023-10-08T06:06:00;101754.59;;;10.26;100.00
55610;BME280;41486;52.502;13.486;2023-10-08T06:08:47;101764.44;;;10.23;100.00
55610;BME280;41486;52.502;13.486;2023-10-08T06:11:36;101773.94;;;10.25;100.00
55610;BME280;41486;52.502;13.486;2023-10-08T06:14:08;101783.38;;;10.14;100.00
55610;BME280;41486;52.502;13.486;2023-10-08T06:17:05;101798.91;;;10.18;100.00
55610;BME280;41486;52.502;13.486;2023-10-08T06:19:40;101798.75;;;10.21;100.00
55610;BME280;41486;52.502;13.486;2023-10-08T06:22:11;101809.31;;;10.36;100.00
55610;BME280;41486;52.502;13.486;2023-10-08T06:24:40;101818.94;;;10.21;100.00
55610;BME280;41486;52.502;13.486;2023-10-08T06:27:08;101821.16;;;10.45;100.00
55610;BME280;41486;52.502;13.486;2023-10-08T06:29:39;101808.59;;;10.50;100.00
55610;BME280;41486;52.502;13.486;2023-10-08T06:32:11;101806.03;;;10.32;100.00
55610;BME280;41486;52.502;13.486;2023-10-08T06:34:39;101820.03;;;10.33;100.00
55610;BME280;41486;52.502;13.486;2023-10-08T06:37:08;101823.88;;;10.27;100.00
55610;BME280;41486;52.502;13.486;2023-10-08T06:39:36;101831.84;;;10.41;100.00
55610;BME280;41486;52.502;13.486;2023-10-08T06:42:16;101824.22;;;10.53;100.00
55610;BME280;41486;52.502;13.486;2023-10-08T06:44:44;101827.06;;;10.32;100.00
55610;BME280;41486;52.502;13.486;2023-10-08T06:47:15;101829.31;;;10.40;100.00
55610;BME280;41486;52.502;13.486;2023-10-08T06:49:45;101826.66;;;10.56;100.00
55610;BME280;41486;52.502;13.486;2023-10-08T06:52:13;101847.78;;;10.54;100.00
55610;BME280;41486;52.502;13.486;2023-10-08T06:54:42;101851.88;;;10.60;100.00
55610;BME280;41486;52.502;13.486;2023-10-08T06:57:10;101852.59;;;10.62;100.00
55610;BME280;41486;52.502;13.486;2023-10-08T06:59:46;101850.84;;;10.47;100.00
55610;BME280;41486;52.502;13.486;2023-10-08T07:02:17;101854.41;;;10.46;100.00
55610;BME280;41486;52.502;13.486;2023-10-08T07:04:46;101853.47;;;10.31;100.00
55610;BME280;41486;52.502;13.486;2023-10-08T07:07:15;101852.66;;;10.46;100.00
55610;BME280;41486;52.502;13.486;2023-10-08T07:09:45;101855.63;;;10.40;100.00
55610;BME280;41486;52.502;13.486;2023-10-08T07:12:15;101855.44;;;10.43;100.00
55610;BME280;41486;52.502;13.486;2023-10-08T07:14:43;101866.47;;;10.50;100.00
55610;BME280;41486;52.502;13.486;2023-10-08T07:17:15;101874.78;;;10.58;100.00
55610;BME280;41486;52.502;13.486;2023-10-08T07:19:47;101879.22;;;10.41;100.00
55610;BME280;41486;52.502;13.486;2023-10-08T07:22:24;101876.75;;;10.38;100.00
55610;BME280;41486;52.502;13.486;2023-10-08T07:24:56;101872.25;;;10.40;100.00
55610;BME280;41486;52.502;13.486;2023-10-08T07:27:25;101875.66;;;10.43;100.00
55610;BME280;41486;52.502;13.486;2023-10-08T07:29:59;101891.69;;;10.54;100.00
55610;BME280;41486;52.502;13.486;2023-10-08T07:32:32;101891.25;;;10.62;100.00
55610;BME280;41486;52.502;13.486;2023-10-08T07:35:01;101890.22;;;10.64;100.00
55610;BME280;41486;52.502;13.486;2023-10-08T07:37:50;101897.09;;;10.67;100.00
55610;BME280;41486;52.502;13.486;2023-10-08T07:40:20;101904.16;;;10.66;100.00
55610;BME280;41486;52.502;13.486;2023-10-08T07:42:54;101907.88;;;10.62;100.00
55610;BME280;41486;52.502;13.486;2023-10-08T07:45:23;101905.75;;;10.85;100.00
55610;BME280;41486;52.502;13.486;2023-10-08T07:47:52;101909.25;;;10.69;100.00
55610;BME280;41486;52.502;13.486;2023-10-08T07:50:22;101911.94;;;10.84;100.00
55610;BME280;41486;52.502;13.486;2023-10-08T07:52:51;101917.53;;;10.78;100.00
55610;BME280;41486;52.502;13.486;2023-10-08T07:55:19;101918.81;;;10.86;100.00
55610;BME280;41486;52.502;13.486;2023-10-08T07:57:48;101914.84;;;10.79;100.00
55610;BME280;41486;52.502;13.486;2023-10-08T08:00:17;101919.59;;;10.88;100.00
55610;BME280;41486;52.502;13.486;2023-10-08T08:02:53;101921.06;;;11.09;100.00
55610;BME280;41486;52.502;13.486;2023-10-08T08:05:23;101919.38;;;11.08;100.00
55610;BME280;41486;52.502;13.486;2023-10-08T08:07:52;101939.09;;;11.00;100.00
55610;BME280;41486;52.502;13.486;2023-10-08T08:10:26;101937.88;;;11.06;100.00
55610;BME280;41486;52.502;13.486;2023-10-08T08:12:56;101934.97;;;11.11;100.00
55610;BME280;41486;52.502;13.486;2023-10-08T08:15:25;101940.66;;;11.19;100.00
55610;BME280;41486;52.502;13.486;2023-10-08T08:17:56;101944.59;;;11.12;100.00
55610;BME280;41486;52.502;13.486;2023-10-08T08:20:24;101932.59;;;11.22;100.00
55610;BME280;41486;52.502;13.486;2023-10-08T08:23:02;101945.41;;;11.28;100.00
55610;BME280;41486;52.502;13.486;2023-10-08T08:25:37;101945.75;;;11.22;100.00
55610;BME280;41486;52.502;13.486;2023-10-08T08:28:12;101955.84;;;11.30;100.00
55610;BME280;41486;52.502;13.486;2023-10-08T08:30:44;101952.72;;;11.23;100.00
55610;BME280;41486;52.502;13.486;2023-10-08T08:33:14;101953.97;;;11.32;100.00
55610;BME280;41486;52.502;13.486;2023-10-08T08:35:57;101960.78;;;11.36;100.00
55610;BME280;41486;52.502;13.486;2023-10-08T08:38:27;101964.09;;;12.13;100.00
55610;BME280;41486;52.502;13.486;2023-10-08T08:41:03;101968.00;;;11.32;100.00
55610;BME280;41486;52.502;13.486;2023-10-08T08:43:34;101961.25;;;11.43;100.00
55610;BME280;41486;52.502;13.486;2023-10-08T08:46:03;101980.47;;;11.59;100.00
55610;BME280;41486;52.502;13.486;2023-10-08T08:48:36;101983.06;;;11.61;100.00
55610;BME280;41486;52.502;13.486;2023-10-08T08:51:06;101982.69;;;11.67;100.00
55610;BME280;41486;52.502;13.486;2023-10-08T08:53:36;101983.06;;;11.75;100.00
55610;BME280;41486;52.502;13.486;2023-10-08T08:56:06;101990.97;;;11.75;100.00
55610;BME280;41486;52.502;13.486;2023-10-08T08:58:37;101983.84;;;11.77;100.00
55610;BME280;41486;52.502;13.486;2023-10-08T09:01:09;101991.81;;;11.90;100.00
55610;BME280;41486;52.502;13.486;2023-10-08T09:03:41;101993.13;;;11.83;100.00
55610;BME280;41486;52.502;13.486;2023-10-08T09:06:09;101994.41;;;11.92;100.00
55610;BME280;41486;52.502;13.486;2023-10-08T09:08:38;102006.84;;;12.04;97.43
55610;BME280;41486;52.502;13.486;2023-10-08T09:11:17;101998.63;;;11.94;98.54
55610;BME280;41486;52.502;13.486;2023-10-08T09:13:45;102004.56;;;11.83;86.95
55610;BME280;41486;52.502;13.486;2023-10-08T09:16:16;102005.31;;;11.86;92.67
55610;BME280;41486;52.502;13.486;2023-10-08T09:18:47;102000.59;;;11.91;97.20
55610;BME280;41486;52.502;13.486;2023-10-08T09:21:22;102002.91;;;11.97;100.00
55610;BME280;41486;52.502;13.486;2023-10-08T09:23:52;102006.19;;;12.01;100.00
55610;BME280;41486;52.502;13.486;2023-10-08T09:26:23;102013.56;;;12.10;100.00
55610;BME280;41486;52.502;13.486;2023-10-08T09:28:52;102005.47;;;12.13;100.00
55610;BME280;41486;52.502;13.486;2023-10-08T09:31:23;102009.22;;;12.23;90.69
55610;BME280;41486;52.502;13.486;2023-10-08T09:33:57;102017.97;;;12.38;90.67
55610;BME280;41486;52.502;13.486;2023-10-08T09:36:29;102012.56;;;12.54;90.16
55610;BME280;41486;52.502;13.486;2023-10-08T09:39:01;102003.84;;;12.39;76.38
55610;BME280;41486;52.502;13.486;2023-10-08T09:41:32;102010.97;;;12.52;80.49
55610;BME280;41486;52.502;13.486;2023-10-08T09:44:00;102020.53;;;12.40;61.39
55610;BME280;41486;52.502;13.486;2023-10-08T09:46:30;102015.22;;;12.54;64.35
55610;BME280;41486;52.502;13.486;2023-10-08T09:49:03;102016.44;;;12.63;64.77
55610;BME280;41486;52.502;13.486;2023-10-08T09:51:39;102020.88;;;12.62;56.22
55610;BME280;41486;52.502;13.486;2023-10-08T09:54:10;102022.03;;;12.58;61.50
55610;BME280;41486;52.502;13.486;2023-10-08T09:56:41;102026.81;;;12.66;66.18
55610;BME280;41486;52.502;13.486;2023-10-08T09:59:13;102034.69;;;12.53;60.99
55610;BME280;41486;52.502;13.486;2023-10-08T10:01:45;102031.53;;;12.61;62.49
55610;BME280;41486;52.502;13.486;2023-10-08T10:04:22;102026.94;;;12.50;61.61
55610;BME280;41486;52.502;13.486;2023-10-08T10:06:52;102032.59;;;12.58;63.99
55610;BME280;41486;52.502;13.486;2023-10-08T10:09:21;102034.66;;;12.68;69.02
55610;BME280;41486;52.502;13.486;2023-10-08T10:11:52;102035.44;;;12.83;59.88
55610;BME280;41486;52.502;13.486;2023-10-08T10:14:22;102036.75;;;12.90;57.84
55610;BME280;41486;52.502;13.486;2023-10-08T10:17:08;102036.09;;;13.01;54.98
55610;BME280;41486;52.502;13.486;2023-10-08T10:19:53;102035.88;;;13.04;57.54
55610;BME280;41486;52.502;13.486;2023-10-08T10:22:27;102028.09;;;13.15;60.32
55610;BME280;41486;52.502;13.486;2023-10-08T10:24:58;102032.53;;;13.15;54.23
55610;BME280;41486;52.502;13.486;2023-10-08T10:27:27;102040.97;;;13.07;53.47
55610;BME280;41486;52.502;13.486;2023-10-08T10:30:02;102041.84;;;13.20;54.03
55610;BME280;41486;52.502;13.486;2023-10-08T10:32:35;102048.34;;;13.29;53.89
55610;BME280;41486;52.502;13.486;2023-10-08T10:35:05;102029.94;;;13.28;55.69
55610;BME280;41486;52.502;13.486;2023-10-08T10:37:38;102035.41;;;14.05;61.15
55610;BME280;41486;52.502;13.486;2023-10-08T10:40:10;102048.78;;;13.76;56.98
55610;BME280;41486;52.502;13.486;2023-10-08T10:42:39;102059.66;;;13.59;51.35
55610;BME280;41486;52.502;13.486;2023-10-08T10:45:14;102057.66;;;13.49;51.51
55610;BME280;41486;52.502;13.486;2023-10-08T10:48:02;102057.00;;;13.59;51.34
55610;BME280;41486;52.502;13.486;2023-10-08T10:50:41;102061.97;;;13.50;51.22
55610;BME280;41486;52.502;13.486;2023-10-08T10:53:36;102060.41;;;13.61;51.17
55610;BME280;41486;52.502;13.486;2023-10-08T10:56:12;102055.38;;;13.43;51.22
55610;BME280;41486;52.502;13.486;2023-10-08T10:58:47;102062.09;;;13.62;51.98
55610;BME280;41486;52.502;13.486;2023-10-08T11:01:23;102063.28;;;13.70;49.87
55610;BME280;41486;52.502;13.486;2023-10-08T11:03:53;102057.72;;;13.48;48.46
55610;BME280;41486;52.502;13.486;2023-10-08T11:06:29;102054.16;;;13.62;49.18
55610;BME280;41486;52.502;13.486;2023-10-08T11:09:00;102054.63;;;13.68;48.06
55610;BME280;41486;52.502;13.486;2023-10-08T11:11:28;102050.59;;;13.63;47.81
55610;BME280;41486;52.502;13.486;2023-10-08T11:13:57;102049.34;;;13.81;48.72
55610;BME280;41486;52.502;13.486;2023-10-08T11:16:27;102049.25;;;14.22;48.64
55610;BME280;41486;52.502;13.486;2023-10-08T11:19:01;102043.97;;;13.96;47.33
55610;BME280;41486;52.502;13.486;2023-10-08T11:21:48;102039.63;;;14.08;46.81
55610;BME280;41486;52.502;13.486;2023-10-08T11:24:27;102038.44;;;14.38;45.10
55610;BME280;41486;52.502;13.486;2023-10-08T11:26:58;102040.25;;;14.37;47.33
55610;BME280;41486;52.502;13.486;2023-10-08T11:29:47;102044.91;;;14.33;45.66
55610;BME280;41486;52.502;13.486;2023-10-08T11:32:24;102047.13;;;14.27;43.65
55610;BME280;41486;52.502;13.486;2023-10-08T11:34:57;102050.28;;;14.19;44.65
55610;BME280;41486;52.502;13.486;2023-10-08T11:37:28;102051.56;;;14.39;45.75
55610;BME280;41486;52.502;13.486;2023-10-08T11:39:56;102062.25;;;14.25;45.94
55610;BME280;41486;52.502;13.486;2023-10-08T11:42:35;102052.66;;;13.98;46.18
55610;BME280;41486;52.502;13.486;2023-10-08T11:45:11;102045.72;;;14.73;47.01
55610;BME280;41486;52.502;13.486;2023-10-08T11:47:46;102041.34;;;15.09;45.54
55610;BME280;41486;52.502;13.486;2023-10-08T11:50:16;102053.75;;;15.08;45.14
55610;BME280;41486;52.502;13.486;2023-10-08T11:52:48;102049.34;;;15.20;44.52
55610;BME280;41486;52.502;13.486;2023-10-08T11:55:16;102048.78;;;15.28;46.85
55610;BME280;41486;52.502;13.486;2023-10-08T11:57:46;102045.41;;;15.02;45.09
55610;BME280;41486;52.502;13.486;2023-10-08T12:00:16;102040.00;;;15.39;45.06
55610;BME280;41486;52.502;13.486;2023-10-08T12:02:58;102044.34;;;15.75;41.31
55610;BME280;41486;52.502;13.486;2023-10-08T12:05:29;102058.50;;;17.12;40.52
55610;BME280;41486;52.502;13.486;2023-10-08T12:08:00;102060.16;;;19.22;36.63
55610;BME280;41486;52.502;13.486;2023-10-08T12:10:28;102055.16;;;18.06;38.25
55610;BME280;41486;52.502;13.486;2023-10-08T12:13:01;102057.19;;;17.07;38.82
55610;BME280;41486;52.502;13.486;2023-10-08T12:15:32;102051.91;;;18.34;39.50
55610;BME280;41486;52.502;13.486;2023-10-08T12:18:05;102058.03;;;18.96;38.45
55610;BME280;41486;52.502;13.486;2023-10-08T12:20:41;102058.66;;;20.72;34.02
55610;BME280;41486;52.502;13.486;2023-10-08T12:23:12;102073.56;;;21.38;33.46
55610;BME280;41486;52.502;13.486;2023-10-08T12:25:52;102055.81;;;20.17;33.96
55610;BME280;41486;52.502;13.486;2023-10-08T12:28:23;102042.19;;;20.94;35.14
55610;BME280;41486;52.502;13.486;2023-10-08T12:30:51;102036.63;;;22.21;32.69
55610;BME280;41486;52.502;13.486;2023-10-08T12:33:20;102033.78;;;21.62;32.81
55610;BME280;41486;52.502;13.486;2023-10-08T12:35:51;102034.25;;;19.91;35.19
55610;BME280;41486;52.502;13.486;2023-10-08T12:38:21;102040.44;;;22.10;31.67
55610;BME280;41486;52.502;13.486;2023-10-08T12:40:50;102039.31;;;22.21;32.08
55610;BME280;41486;52.502;13.486;2023-10-08T12:43:20;102033.53;;;18.00;37.93
55610;BME280;41486;52.502;13.486;2023-10-08T12:45:50;102035.69;;;18.97;37.31
55610;BME280;41486;52.502;13.486;2023-10-08T12:48:21;102029.13;;;20.36;34.98
55610;BME280;41486;52.502;13.486;2023-10-08T12:50:51;102039.38;;;21.14;33.47
55610;BME280;41486;52.502;13.486;2023-10-08T12:53:27;102041.94;;;18.26;35.67
55610;BME280;41486;52.502;13.486;2023-10-08T12:56:01;102039.22;;;17.95;38.58
55610;BME280;41486;52.502;13.486;2023-10-08T12:58:36;102030.59;;;18.84;36.46
55610;BME280;41486;52.502;13.486;2023-10-08T13:01:08;102020.66;;;18.45;36.91
55610;BME280;41486;52.502;13.486;2023-10-08T13:03:37;102029.66;;;18.13;38.51
55610;BME280;41486;52.502;13.486;2023-10-08T13:06:09;102025.97;;;17.41;39.35